Time;durP1;ratioP1;P1;durP2;ratioP2;P2;SDS_P1;SDS_P2;PMS_P1;PMS_P2;Temp;Humidity;BMP_temperature;BMP_pressure;BME280_temperature;BME280_humidity;BME280_pressure;Samples;Min_cycle;Max_cycle;Signal;HPM_P1;HPM_P2
2024/01/03 00:00:25;;;;;;;2.30;0.50;;;;;;;;;;493912;28;1187;-81
2024/01/03 00:00:44;;;;;;;1.60;0.40;;;;;;;;;;495614;28;1005;-84
2024/01/03 00:01:05;;;;;;;1.27;0.30;;;;;;;;;;497668;28;996;-81
2024/01/03 00:01:21;;;;;;;1.30;0.30;;;;;;;;;;498333;28;1333;-82
2024/01/03 00:01:37;;;;;;;1.63;0.35;;;;;;;;;;500514;28;1144;-82
2024/01/03 00:01:58;;;;;;;1.20;0.30;;;;;;;;;;502025;28;1255;-82
2024/01/03 00:02:16;;;;;;;1.52;0.40;;;;;;;;;;499416;28;1246;-81
2024/01/03 00:02:31;;;;;;;2.42;0.55;;;;;;;;;;499732;28;1207;-84
2024/01/03 00:02:48;;;;;;;3.35;0.55;;;;;;;;;;499447;28;1205;-80
2024/01/03 00:03:04;;;;;;;3.25;0.50;;;;;;;;;;499095;28;1437;-85
2024/01/03 00:03:22;;;;;;;1.48;0.38;;;;;;;;;;496529;28;1255;-81
2024/01/03 00:03:38;;;;;;;1.48;0.40;;;;;;;;;;497427;28;1319;-81
2024/01/03 00:03:54;;;;;;;1.65;0.47;;;;;;;;;;495677;28;1002;-81
2024/01/03 00:04:23;;;;;;;1.17;0.40;;;;;;;;;;494186;28;1451;-81
2024/01/03 00:04:39;;;;;;;1.88;0.50;;;;;;;;;;498348;28;1158;-81
2024/01/03 00:04:54;;;;;;;1.55;0.40;;;;;;;;;;497014;28;1411;-80
2024/01/03 00:05:10;;;;;;;1.17;0.40;;;;;;;;;;495312;28;1188;-81
2024/01/03 00:05:38;;;;;;;1.38;0.30;;;;;;;;;;495687;28;1297;-83
2024/01/03 00:05:54;;;;;;;1.00;0.30;;;;;;;;;;494386;28;1398;-82
2024/01/03 00:06:10;;;;;;;1.95;0.50;;;;;;;;;;494233;28;1459;-79
2024/01/03 00:06:35;;;;;;;2.40;0.60;;;;;;;;;;496391;28;1129;-81
2024/01/03 00:06:51;;;;;;;1.48;0.40;;;;;;;;;;496290;28;958;-80
2024/01/03 00:07:07;;;;;;;1.23;0.40;;;;;;;;;;495076;28;1428;-80
2024/01/03 00:07:22;;;;;;;1.45;0.40;;;;;;;;;;496370;28;1011;-82
2024/01/03 00:07:38;;;;;;;1.42;0.30;;;;;;;;;;499709;28;1170;-83
2024/01/03 00:07:56;;;;;;;2.20;0.30;;;;;;;;;;499108;28;1160;-80
2024/01/03 00:08:15;;;;;;;2.15;0.38;;;;;;;;;;495632;28;1458;-82
2024/01/03 00:08:38;;;;;;;2.30;0.52;;;;;;;;;;499764;28;941;-85
2024/01/03 00:08:53;;;;;;;1.33;0.40;;;;;;;;;;494966;28;1318;-81
2024/01/03 00:09:09;;;;;;;1.27;0.30;;;;;;;;;;496186;28;1946;-81
2024/01/03 00:09:25;;;;;;;1.73;0.40;;;;;;;;;;498098;28;1255;-83
2024/01/03 00:09:41;;;;;;;2.13;0.40;;;;;;;;;;500258;28;1074;-81
2024/01/03 00:10:00;;;;;;;2.83;0.50;;;;;;;;;;501177;28;1324;-81
2024/01/03 00:10:40;;;;;;;2.00;0.40;;;;;;;;;;494793;28;956;-82
2024/01/03 00:10:56;;;;;;;1.70;0.47;;;;;;;;;;501768;28;1200;-81
2024/01/03 00:11:20;;;;;;;2.10;0.60;;;;;;;;;;493057;28;1251;-82
2024/01/03 00:11:36;;;;;;;2.53;0.52;;;;;;;;;;500779;28;1386;-80
2024/01/03 00:11:51;;;;;;;3.85;0.60;;;;;;;;;;498347;28;1227;-85
2024/01/03 00:12:10;;;;;;;4.53;0.47;;;;;;;;;;495713;28;901;-81
2024/01/03 00:12:26;;;;;;;2.20;0.45;;;;;;;;;;498287;28;1125;-80
2024/01/03 00:12:42;;;;;;;1.95;0.50;;;;;;;;;;501363;28;1149;-80
2024/01/03 00:12:58;;;;;;;2.47;0.50;;;;;;;;;;495729;28;1540;-82
2024/01/03 00:13:38;;;;;;;2.83;0.50;;;;;;;;;;495198;28;1502;-81
2024/01/03 00:13:56;;;;;;;3.08;0.80;;;;;;;;;;498829;28;1578;-81
2024/01/03 00:14:32;;;;;;;2.92;0.60;;;;;;;;;;491888;28;1082;-79
2024/01/03 00:14:48;;;;;;;2.08;0.50;;;;;;;;;;495621;28;1064;-80
2024/01/03 00:15:36;;;;;;;2.08;0.50;;;;;;;;;;493648;28;1149;-81
2024/01/03 00:16:21;;;;;;;1.98;0.50;;;;;;;;;;495507;28;1284;-80
2024/01/03 00:16:39;;;;;;;1.67;0.50;;;;;;;;;;500867;28;1116;-83
2024/01/03 00:16:59;;;;;;;1.98;0.43;;;;;;;;;;502160;28;1660;-81
2024/01/03 00:17:15;;;;;;;2.22;0.50;;;;;;;;;;499742;28;1106;-80
2024/01/03 00:17:31;;;;;;;2.30;0.50;;;;;;;;;;500106;28;959;-79
2024/01/03 00:17:53;;;;;;;2.32;0.42;;;;;;;;;;382092;28;10000331;-79
2024/01/03 00:18:32;;;;;;;2.72;0.50;;;;;;;;;;496986;28;1210;-80
2024/01/03 00:18:54;;;;;;;2.00;0.50;;;;;;;;;;496388;28;1356;-81
2024/01/03 00:19:16;;;;;;;1.60;0.40;;;;;;;;;;495920;28;1018;-78
2024/01/03 00:19:34;;;;;;;2.00;0.47;;;;;;;;;;497885;28;1173;-79
2024/01/03 00:19:57;;;;;;;2.65;0.60;;;;;;;;;;498617;28;1383;-80
2024/01/03 00:20:13;;;;;;;2.88;0.65;;;;;;;;;;492989;28;1368;-79
2024/01/03 00:20:28;;;;;;;2.35;0.52;;;;;;;;;;496007;28;1493;-81
2024/01/03 00:20:44;;;;;;;1.97;0.50;;;;;;;;;;495841;28;1012;-79
2024/01/03 00:21:00;;;;;;;2.33;0.57;;;;;;;;;;495287;28;1042;-79
2024/01/03 00:21:28;;;;;;;3.08;0.70;;;;;;;;;;492928;28;1105;-79
2024/01/03 00:21:44;;;;;;;2.15;0.60;;;;;;;;;;499769;28;1291;-79
2024/01/03 00:22:00;;;;;;;1.80;0.50;;;;;;;;;;499325;28;1079;-79
2024/01/03 00:22:16;;;;;;;1.67;0.50;;;;;;;;;;495643;28;1380;-78
2024/01/03 00:22:33;;;;;;;2.55;0.43;;;;;;;;;;496770;28;1180;-78
2024/01/03 00:22:48;;;;;;;2.08;0.40;;;;;;;;;;496956;28;1081;-80
2024/01/03 00:23:06;;;;;;;2.75;0.47;;;;;;;;;;498374;28;1254;-76
2024/01/03 00:23:25;;;;;;;2.58;0.45;;;;;;;;;;498008;28;1093;-76
2024/01/03 00:23:52;;;;;;;1.67;0.43;;;;;;;;;;500301;28;1025;-77
2024/01/03 00:24:11;;;;;;;1.63;0.40;;;;;;;;;;498071;28;1270;-80
2024/01/03 00:24:35;;;;;;;2.03;0.50;;;;;;;;;;499856;28;1333;-80
2024/01/03 00:24:50;;;;;;;1.60;0.45;;;;;;;;;;500453;28;1139;-80
2024/01/03 00:25:09;;;;;;;2.75;0.60;;;;;;;;;;498393;28;1221;-77
2024/01/03 00:25:29;;;;;;;2.75;0.60;;;;;;;;;;501531;28;1386;-77
2024/01/03 00:25:47;;;;;;;2.38;0.50;;;;;;;;;;503033;28;1672;-78
2024/01/03 00:26:03;;;;;;;2.75;0.50;;;;;;;;;;502774;28;1266;-77
2024/01/03 00:26:19;;;;;;;2.30;0.40;;;;;;;;;;500328;28;1191;-78
2024/01/03 00:26:36;;;;;;;2.28;0.43;;;;;;;;;;501571;28;1238;-76
2024/01/03 00:26:52;;;;;;;3.55;0.70;;;;;;;;;;504566;28;1054;-77
2024/01/03 00:27:08;;;;;;;3.88;0.70;;;;;;;;;;499737;28;1091;-77
2024/01/03 00:27:23;;;;;;;3.42;0.55;;;;;;;;;;499558;28;1325;-76
2024/01/03 00:27:40;;;;;;;2.65;0.52;;;;;;;;;;500409;28;1399;-77
2024/01/03 00:27:56;;;;;;;1.40;0.40;;;;;;;;;;499563;28;1016;-78
2024/01/03 00:28:12;;;;;;;1.27;0.38;;;;;;;;;;497767;28;1229;-78
2024/01/03 00:28:27;;;;;;;1.73;0.33;;;;;;;;;;499199;28;1161;-77
2024/01/03 00:28:43;;;;;;;2.53;0.30;;;;;;;;;;499181;28;1060;-77
2024/01/03 00:28:59;;;;;;;2.10;0.33;;;;;;;;;;499038;28;1249;-77
2024/01/03 00:29:23;;;;;;;1.63;0.40;;;;;;;;;;497283;28;2013;-78
2024/01/03 00:29:53;;;;;;;2.75;0.40;;;;;;;;;;499534;28;968;-77
2024/01/03 00:30:08;;;;;;;2.35;0.40;;;;;;;;;;498352;28;1019;-78
2024/01/03 00:30:24;;;;;;;2.95;0.40;;;;;;;;;;499538;28;1190;-77
2024/01/03 00:30:40;;;;;;;2.70;0.28;;;;;;;;;;499616;28;1029;-79
2024/01/03 00:30:56;;;;;;;2.27;0.30;;;;;;;;;;499757;28;1079;-77
2024/01/03 00:31:37;;;;;;;1.67;0.40;;;;;;;;;;496778;28;1151;-75
2024/01/03 00:31:52;;;;;;;1.40;0.32;;;;;;;;;;500026;28;1105;-76
2024/01/03 00:32:08;;;;;;;2.53;0.40;;;;;;;;;;498517;28;1271;-77
2024/01/03 00:32:23;;;;;;;2.50;0.40;;;;;;;;;;499732;28;914;-77
2024/01/03 00:32:39;;;;;;;1.30;0.30;;;;;;;;;;500285;28;1184;-78
2024/01/03 00:32:54;;;;;;;1.23;0.30;;;;;;;;;;501204;28;1304;-76
2024/01/03 00:33:10;;;;;;;1.53;0.30;;;;;;;;;;497775;28;1086;-77
2024/01/03 00:33:26;;;;;;;1.50;0.30;;;;;;;;;;498419;28;1442;-78
2024/01/03 00:33:43;;;;;;;1.63;0.40;;;;;;;;;;499625;28;1100;-88
2024/01/03 00:33:58;;;;;;;1.30;0.30;;;;;;;;;;501912;28;1259;-81
2024/01/03 00:34:23;;;;;;;0.90;0.20;;;;;;;;;;497844;28;1225;-78
2024/01/03 00:34:43;;;;;;;1.52;0.30;;;;;;;;;;499934;28;1235;-76
2024/01/03 00:34:59;;;;;;;2.08;0.30;;;;;;;;;;498097;28;979;-77
2024/01/03 00:35:15;;;;;;;1.42;0.30;;;;;;;;;;496894;28;965;-77
2024/01/03 00:35:32;;;;;;;0.43;0.15;;;;;;;;;;497631;28;1105;-76
2024/01/03 00:35:47;;;;;;;0.98;0.20;;;;;;;;;;499551;28;1082;-76
2024/01/03 00:36:03;;;;;;;1.27;0.30;;;;;;;;;;499242;28;1212;-77
2024/01/03 00:36:19;;;;;;;1.90;0.40;;;;;;;;;;496383;28;1225;-78
2024/01/03 00:36:35;;;;;;;2.20;0.50;;;;;;;;;;496358;28;1093;-77
2024/01/03 00:36:52;;;;;;;1.55;0.30;;;;;;;;;;496294;28;1268;-76
2024/01/03 00:37:20;;;;;;;1.85;0.20;;;;;;;;;;495502;28;1374;-76
2024/01/03 00:37:36;;;;;;;1.48;0.30;;;;;;;;;;500088;28;1259;-75
2024/01/03 00:37:52;;;;;;;2.50;0.40;;;;;;;;;;499773;28;1256;-77
2024/01/03 00:38:07;;;;;;;1.95;0.40;;;;;;;;;;497058;28;1233;-77
2024/01/03 00:38:23;;;;;;;1.73;0.30;;;;;;;;;;497619;28;1145;-76
2024/01/03 00:38:42;;;;;;;2.25;0.30;;;;;;;;;;499386;28;1210;-76
2024/01/03 00:38:58;;;;;;;1.25;0.22;;;;;;;;;;497518;28;1370;-77
2024/01/03 00:39:13;;;;;;;1.20;0.30;;;;;;;;;;495162;28;1328;-77
2024/01/03 00:39:33;;;;;;;1.50;0.40;;;;;;;;;;497949;28;917;-77
2024/01/03 00:39:49;;;;;;;1.23;0.30;;;;;;;;;;498160;28;1106;-76
2024/01/03 00:40:16;;;;;;;1.13;0.20;;;;;;;;;;498927;28;1248;-77
2024/01/03 00:40:32;;;;;;;1.58;0.30;;;;;;;;;;502260;28;1051;-77
2024/01/03 00:40:55;;;;;;;1.13;0.30;;;;;;;;;;503281;28;1096;-77
2024/01/03 00:41:11;;;;;;;1.80;0.28;;;;;;;;;;498990;28;969;-76
2024/01/03 00:41:26;;;;;;;0.90;0.20;;;;;;;;;;498336;28;1326;-77
2024/01/03 00:41:44;;;;;;;1.00;0.30;;;;;;;;;;499772;28;1111;-76
2024/01/03 00:42:00;;;;;;;1.30;0.30;;;;;;;;;;499872;28;1359;-78
2024/01/03 00:42:16;;;;;;;0.90;0.20;;;;;;;;;;494503;28;1061;-78
2024/01/03 00:42:32;;;;;;;0.52;0.13;;;;;;;;;;497705;28;1204;-78
2024/01/03 00:42:48;;;;;;;0.82;0.20;;;;;;;;;;497052;28;1161;-77
2024/01/03 00:43:03;;;;;;;1.00;0.10;;;;;;;;;;496627;28;1237;-76
2024/01/03 00:43:19;;;;;;;1.00;0.10;;;;;;;;;;495464;28;1069;-77
2024/01/03 00:43:34;;;;;;;2.00;0.30;;;;;;;;;;501470;28;1282;-79
2024/01/03 00:43:50;;;;;;;3.30;0.30;;;;;;;;;;502190;28;918;-77
2024/01/03 00:44:06;;;;;;;2.70;0.30;;;;;;;;;;499631;28;992;-77
2024/01/03 00:44:21;;;;;;;1.60;0.30;;;;;;;;;;497604;28;1076;-77
2024/01/03 00:44:37;;;;;;;1.43;0.30;;;;;;;;;;499227;28;1262;-77
2024/01/03 00:44:52;;;;;;;1.98;0.25;;;;;;;;;;498089;28;1162;-77
2024/01/03 00:45:08;;;;;;;1.47;0.30;;;;;;;;;;499079;28;1030;-77
2024/01/03 00:45:23;;;;;;;0.90;0.25;;;;;;;;;;497825;28;1335;-76
2024/01/03 00:45:39;;;;;;;0.77;0.20;;;;;;;;;;495387;28;1212;-76
2024/01/03 00:45:56;;;;;;;1.93;0.20;;;;;;;;;;495171;28;989;-76
2024/01/03 00:46:13;;;;;;;2.53;0.32;;;;;;;;;;496632;28;1197;-77
2024/01/03 00:46:28;;;;;;;1.35;0.40;;;;;;;;;;498873;28;1326;-76
2024/01/03 00:46:44;;;;;;;1.43;0.40;;;;;;;;;;499753;28;1133;-78
2024/01/03 00:47:00;;;;;;;1.70;0.32;;;;;;;;;;500659;28;1173;-76
2024/01/03 00:47:18;;;;;;;1.50;0.30;;;;;;;;;;501204;28;1346;-78
2024/01/03 00:47:34;;;;;;;1.27;0.20;;;;;;;;;;503074;28;922;-77
2024/01/03 00:47:50;;;;;;;1.50;0.20;;;;;;;;;;504014;28;961;-76
2024/01/03 00:48:06;;;;;;;2.17;0.20;;;;;;;;;;500083;28;1431;-77
2024/01/03 00:48:22;;;;;;;2.20;0.20;;;;;;;;;;499384;28;1307;-76
2024/01/03 00:48:37;;;;;;;0.98;0.20;;;;;;;;;;501697;28;1183;-76
2024/01/03 00:48:53;;;;;;;1.85;0.30;;;;;;;;;;499519;28;1211;-77
2024/01/03 00:49:09;;;;;;;2.23;0.30;;;;;;;;;;496321;28;1986;-77
2024/01/03 00:49:24;;;;;;;1.52;0.20;;;;;;;;;;496701;28;1101;-77
2024/01/03 00:49:40;;;;;;;2.20;0.40;;;;;;;;;;498070;28;1501;-77
2024/01/03 00:49:56;;;;;;;1.98;0.40;;;;;;;;;;495446;28;1113;-76
2024/01/03 00:50:11;;;;;;;1.20;0.20;;;;;;;;;;494058;28;1392;-77
2024/01/03 00:50:27;;;;;;;1.08;0.30;;;;;;;;;;497977;28;1278;-76
2024/01/03 00:50:42;;;;;;;1.00;0.30;;;;;;;;;;497234;28;1584;-78
2024/01/03 00:50:59;;;;;;;1.38;0.10;;;;;;;;;;498269;28;1093;-77
2024/01/03 00:51:14;;;;;;;1.35;0.20;;;;;;;;;;494524;28;1297;-77
2024/01/03 00:51:30;;;;;;;1.42;0.30;;;;;;;;;;496383;28;1232;-77
2024/01/03 00:51:48;;;;;;;1.50;0.30;;;;;;;;;;498261;28;978;-78
2024/01/03 00:52:04;;;;;;;2.08;0.20;;;;;;;;;;499381;28;965;-77
2024/01/03 00:52:20;;;;;;;3.55;0.30;;;;;;;;;;495728;28;1621;-77
2024/01/03 00:52:36;;;;;;;2.60;0.30;;;;;;;;;;498373;28;1059;-77
2024/01/03 00:52:51;;;;;;;1.80;0.30;;;;;;;;;;497935;28;1121;-76
2024/01/03 00:53:07;;;;;;;1.55;0.20;;;;;;;;;;496501;28;1421;-76
2024/01/03 00:53:24;;;;;;;0.77;0.13;;;;;;;;;;496764;28;1052;-76
2024/01/03 00:53:39;;;;;;;2.10;0.20;;;;;;;;;;500058;28;1737;-77
2024/01/03 00:53:55;;;;;;;2.23;0.30;;;;;;;;;;499787;28;969;-77
2024/01/03 00:54:11;;;;;;;1.63;0.30;;;;;;;;;;494205;28;1101;-77
2024/01/03 00:54:28;;;;;;;1.23;0.30;;;;;;;;;;496159;28;1234;-77
2024/01/03 00:54:45;;;;;;;1.00;0.20;;;;;;;;;;494923;28;1257;-77
2024/01/03 00:55:01;;;;;;;1.50;0.30;;;;;;;;;;495950;28;1098;-77
2024/01/03 00:55:16;;;;;;;1.93;0.40;;;;;;;;;;492940;28;1224;-76
2024/01/03 00:55:32;;;;;;;2.28;0.40;;;;;;;;;;495901;28;1059;-77
2024/01/03 00:55:48;;;;;;;1.95;0.40;;;;;;;;;;495608;28;975;-77
2024/01/03 00:56:04;;;;;;;1.75;0.30;;;;;;;;;;495624;28;898;-77
2024/01/03 00:56:20;;;;;;;1.92;0.30;;;;;;;;;;493348;28;1404;-77
2024/01/03 00:56:35;;;;;;;1.93;0.37;;;;;;;;;;496802;28;1215;-77
2024/01/03 00:56:52;;;;;;;2.35;0.40;;;;;;;;;;497193;28;1099;-77
2024/01/03 00:57:07;;;;;;;2.03;0.40;;;;;;;;;;496677;28;1168;-77
2024/01/03 00:57:23;;;;;;;1.57;0.30;;;;;;;;;;496913;28;1269;-77
2024/01/03 00:57:39;;;;;;;1.35;0.20;;;;;;;;;;497204;28;1227;-77
2024/01/03 00:57:55;;;;;;;1.37;0.30;;;;;;;;;;496400;28;1400;-77
2024/01/03 00:58:11;;;;;;;1.23;0.40;;;;;;;;;;492317;28;1802;-77
2024/01/03 00:58:27;;;;;;;1.20;0.30;;;;;;;;;;495649;28;1314;-78
2024/01/03 00:58:43;;;;;;;1.63;0.30;;;;;;;;;;496430;28;1192;-77
2024/01/03 00:58:58;;;;;;;1.57;0.30;;;;;;;;;;497322;28;1048;-77
2024/01/03 00:59:15;;;;;;;1.23;0.30;;;;;;;;;;494729;28;917;-78
2024/01/03 00:59:34;;;;;;;1.60;0.30;;;;;;;;;;498704;28;950;-77
2024/01/03 00:59:50;;;;;;;2.03;0.30;;;;;;;;;;499035;28;1297;-77
2024/01/03 01:00:06;;;;;;;2.33;0.30;;;;;;;;;;499584;28;978;-77
2024/01/03 01:00:22;;;;;;;1.58;0.40;;;;;;;;;;497531;28;1377;-77
2024/01/03 01:00:37;;;;;;;1.55;0.47;;;;;;;;;;498361;28;1387;-77
2024/01/03 01:00:53;;;;;;;2.07;0.40;;;;;;;;;;498878;28;1071;-77
2024/01/03 01:01:09;;;;;;;1.38;0.30;;;;;;;;;;496904;28;1033;-77
2024/01/03 01:01:24;;;;;;;2.33;0.32;;;;;;;;;;496712;28;1219;-77
2024/01/03 01:01:41;;;;;;;2.93;0.40;;;;;;;;;;498677;28;1209;-77
2024/01/03 01:01:57;;;;;;;1.50;0.40;;;;;;;;;;496374;28;1099;-77
2024/01/03 01:02:12;;;;;;;2.17;0.35;;;;;;;;;;495011;28;1832;-77
2024/01/03 01:02:28;;;;;;;1.97;0.30;;;;;;;;;;494754;28;1273;-77
2024/01/03 01:02:45;;;;;;;1.10;0.30;;;;;;;;;;495750;28;955;-77
2024/01/03 01:03:01;;;;;;;1.67;0.40;;;;;;;;;;496570;28;1391;-76
2024/01/03 01:03:17;;;;;;;1.48;0.35;;;;;;;;;;496898;28;1243;-77
2024/01/03 01:03:33;;;;;;;0.95;0.30;;;;;;;;;;501663;28;1086;-77
2024/01/03 01:03:48;;;;;;;0.95;0.30;;;;;;;;;;501846;28;1082;-77
2024/01/03 01:04:04;;;;;;;1.35;0.40;;;;;;;;;;497600;28;1096;-78
2024/01/03 01:04:20;;;;;;;1.45;0.32;;;;;;;;;;493284;28;1113;-77
2024/01/03 01:04:39;;;;;;;1.57;0.30;;;;;;;;;;495142;28;1317;-77
2024/01/03 01:04:54;;;;;;;1.98;0.40;;;;;;;;;;497206;28;1085;-77
2024/01/03 01:05:10;;;;;;;1.73;0.40;;;;;;;;;;496753;28;1303;-77
2024/01/03 01:05:26;;;;;;;1.07;0.30;;;;;;;;;;495759;28;1394;-77
2024/01/03 01:05:43;;;;;;;1.30;0.30;;;;;;;;;;495948;28;1007;-77
2024/01/03 01:05:58;;;;;;;1.55;0.35;;;;;;;;;;497152;28;1327;-77
2024/01/03 01:06:14;;;;;;;1.40;0.40;;;;;;;;;;496338;28;1427;-77
2024/01/03 01:06:30;;;;;;;2.20;0.40;;;;;;;;;;498914;28;885;-77
2024/01/03 01:06:45;;;;;;;2.55;0.40;;;;;;;;;;499597;28;1132;-77
2024/01/03 01:07:01;;;;;;;2.45;0.40;;;;;;;;;;499183;28;997;-77
2024/01/03 01:07:17;;;;;;;1.98;0.40;;;;;;;;;;494645;28;1258;-77
2024/01/03 01:07:33;;;;;;;1.47;0.30;;;;;;;;;;499645;28;1175;-77
2024/01/03 01:07:48;;;;;;;1.40;0.30;;;;;;;;;;498844;28;1236;-77
2024/01/03 01:08:05;;;;;;;1.98;0.50;;;;;;;;;;499346;28;1061;-77
2024/01/03 01:08:20;;;;;;;1.95;0.38;;;;;;;;;;496424;28;1369;-77
2024/01/03 01:08:36;;;;;;;2.30;0.40;;;;;;;;;;497646;28;1248;-77
2024/01/03 01:08:51;;;;;;;2.00;0.40;;;;;;;;;;497299;28;1017;-77
2024/01/03 01:09:08;;;;;;;1.58;0.40;;;;;;;;;;496612;28;2015;-77
2024/01/03 01:09:24;;;;;;;1.38;0.32;;;;;;;;;;496895;28;1338;-77
2024/01/03 01:09:39;;;;;;;1.73;0.32;;;;;;;;;;497852;28;1213;-77
2024/01/03 01:09:55;;;;;;;2.70;0.40;;;;;;;;;;498396;28;1267;-77
2024/01/03 01:10:10;;;;;;;2.60;0.33;;;;;;;;;;495598;28;1003;-79
2024/01/03 01:10:26;;;;;;;1.88;0.30;;;;;;;;;;498578;28;1156;-77
2024/01/03 01:10:41;;;;;;;2.10;0.30;;;;;;;;;;498732;28;1160;-79
2024/01/03 01:10:57;;;;;;;1.88;0.40;;;;;;;;;;497653;28;1030;-77
2024/01/03 01:11:12;;;;;;;1.47;0.40;;;;;;;;;;495489;28;1172;-77
2024/01/03 01:11:28;;;;;;;1.33;0.32;;;;;;;;;;499336;28;946;-76
2024/01/03 01:11:44;;;;;;;1.90;0.40;;;;;;;;;;498984;28;1285;-77
2024/01/03 01:11:59;;;;;;;1.90;0.40;;;;;;;;;;497187;28;1396;-77
2024/01/03 01:12:15;;;;;;;1.35;0.30;;;;;;;;;;494144;28;1241;-77
2024/01/03 01:12:30;;;;;;;1.60;0.40;;;;;;;;;;496185;28;1298;-78
2024/01/03 01:12:46;;;;;;;1.60;0.32;;;;;;;;;;495230;28;1065;-77
2024/01/03 01:13:02;;;;;;;1.40;0.30;;;;;;;;;;494408;28;1322;-77
2024/01/03 01:13:18;;;;;;;1.23;0.30;;;;;;;;;;495993;28;1259;-77
2024/01/03 01:13:33;;;;;;;1.43;0.20;;;;;;;;;;497656;28;1343;-78
2024/01/03 01:13:49;;;;;;;1.55;0.30;;;;;;;;;;496957;28;1135;-77
2024/01/03 01:14:04;;;;;;;1.93;0.40;;;;;;;;;;498973;28;1097;-77
2024/01/03 01:14:20;;;;;;;2.70;0.50;;;;;;;;;;496196;28;1250;-77
2024/01/03 01:14:35;;;;;;;2.07;0.40;;;;;;;;;;498674;28;913;-77
2024/01/03 01:14:51;;;;;;;1.42;0.30;;;;;;;;;;495144;28;1311;-77
2024/01/03 01:15:07;;;;;;;2.58;0.40;;;;;;;;;;494220;28;945;-76
2024/01/03 01:15:22;;;;;;;2.77;0.40;;;;;;;;;;494265;28;1160;-78
2024/01/03 01:15:38;;;;;;;1.92;0.30;;;;;;;;;;497250;28;1140;-77
2024/01/03 01:15:54;;;;;;;1.08;0.30;;;;;;;;;;497185;28;981;-78
2024/01/03 01:16:09;;;;;;;1.10;0.30;;;;;;;;;;497016;28;952;-78
2024/01/03 01:16:25;;;;;;;1.52;0.40;;;;;;;;;;494138;28;1185;-78
2024/01/03 01:16:40;;;;;;;1.50;0.40;;;;;;;;;;495998;28;1319;-77
2024/01/03 01:16:56;;;;;;;1.55;0.30;;;;;;;;;;496320;28;1276;-77
2024/01/03 01:17:11;;;;;;;2.40;0.40;;;;;;;;;;495544;28;913;-77
2024/01/03 01:17:27;;;;;;;2.50;0.50;;;;;;;;;;498282;28;1196;-77
2024/01/03 01:17:42;;;;;;;2.20;0.50;;;;;;;;;;499958;28;1332;-78
2024/01/03 01:17:58;;;;;;;2.33;0.50;;;;;;;;;;499630;28;1189;-78
2024/01/03 01:18:13;;;;;;;2.38;0.52;;;;;;;;;;496035;28;974;-77
2024/01/03 01:18:29;;;;;;;3.10;0.70;;;;;;;;;;500649;28;1077;-77
2024/01/03 01:18:44;;;;;;;2.72;0.60;;;;;;;;;;500067;28;1007;-77
2024/01/03 01:19:00;;;;;;;1.70;0.50;;;;;;;;;;500548;28;1234;-78
2024/01/03 01:19:16;;;;;;;2.85;0.60;;;;;;;;;;493673;28;1096;-77
2024/01/03 01:19:31;;;;;;;2.67;0.60;;;;;;;;;;498581;28;994;-78
2024/01/03 01:19:47;;;;;;;2.00;0.50;;;;;;;;;;498848;28;1176;-78
2024/01/03 01:20:03;;;;;;;2.15;0.50;;;;;;;;;;497621;28;1102;-78
2024/01/03 01:20:18;;;;;;;2.20;0.60;;;;;;;;;;494098;28;1361;-77
2024/01/03 01:20:34;;;;;;;1.87;0.60;;;;;;;;;;497661;28;908;-78
2024/01/03 01:20:49;;;;;;;1.77;0.50;;;;;;;;;;498386;28;1594;-78
2024/01/03 01:21:05;;;;;;;2.37;0.53;;;;;;;;;;495273;28;1030;-78
2024/01/03 01:21:21;;;;;;;3.03;0.60;;;;;;;;;;493955;28;1342;-78
2024/01/03 01:21:39;;;;;;;2.45;0.50;;;;;;;;;;495878;28;981;-78
2024/01/03 01:21:55;;;;;;;2.20;0.55;;;;;;;;;;492950;28;1771;-77
2024/01/03 01:22:12;;;;;;;1.73;0.50;;;;;;;;;;493055;28;906;-78
2024/01/03 01:22:28;;;;;;;2.28;0.40;;;;;;;;;;493314;28;1384;-77
2024/01/03 01:22:43;;;;;;;3.05;0.43;;;;;;;;;;494564;28;1155;-78
2024/01/03 01:22:59;;;;;;;2.13;0.50;;;;;;;;;;494102;28;1284;-78
2024/01/03 01:23:15;;;;;;;2.30;0.50;;;;;;;;;;491017;28;990;-77
2024/01/03 01:23:30;;;;;;;1.83;0.50;;;;;;;;;;498819;28;1072;-78
2024/01/03 01:23:46;;;;;;;1.60;0.50;;;;;;;;;;497450;28;1194;-78
2024/01/03 01:24:02;;;;;;;1.90;0.50;;;;;;;;;;499253;28;1469;-78
2024/01/03 01:24:18;;;;;;;2.05;0.60;;;;;;;;;;493739;28;1409;-78
2024/01/03 01:24:34;;;;;;;2.20;0.50;;;;;;;;;;494930;28;1032;-78
2024/01/03 01:24:49;;;;;;;2.63;0.50;;;;;;;;;;494828;28;921;-77
2024/01/03 01:25:05;;;;;;;2.67;0.60;;;;;;;;;;496611;28;1086;-77
2024/01/03 01:25:21;;;;;;;2.17;0.60;;;;;;;;;;494917;28;1362;-77
2024/01/03 01:25:36;;;;;;;2.47;0.65;;;;;;;;;;498372;28;1331;-78
2024/01/03 01:25:52;;;;;;;2.43;0.63;;;;;;;;;;498168;28;974;-78
2024/01/03 01:26:10;;;;;;;2.67;0.65;;;;;;;;;;496575;28;1418;-77
2024/01/03 01:26:25;;;;;;;3.10;0.65;;;;;;;;;;496569;28;1366;-78
2024/01/03 01:26:41;;;;;;;3.22;0.60;;;;;;;;;;498277;28;1060;-78
2024/01/03 01:26:57;;;;;;;3.30;0.60;;;;;;;;;;496802;28;1025;-77
2024/01/03 01:27:13;;;;;;;3.30;0.70;;;;;;;;;;495493;28;977;-78
2024/01/03 01:27:29;;;;;;;2.73;0.70;;;;;;;;;;502671;28;928;-77
2024/01/03 01:27:44;;;;;;;2.15;0.60;;;;;;;;;;501023;28;1120;-77
2024/01/03 01:28:00;;;;;;;2.60;0.60;;;;;;;;;;498253;28;1239;-78
2024/01/03 01:28:15;;;;;;;3.10;0.55;;;;;;;;;;493089;28;1200;-78
2024/01/03 01:28:31;;;;;;;2.53;0.52;;;;;;;;;;497804;28;1200;-78
2024/01/03 01:28:47;;;;;;;3.50;0.80;;;;;;;;;;497315;28;1203;-78
2024/01/03 01:29:02;;;;;;;3.40;0.77;;;;;;;;;;496997;28;1046;-78
2024/01/03 01:29:18;;;;;;;3.10;0.68;;;;;;;;;;493949;28;2004;-79
2024/01/03 01:29:34;;;;;;;3.60;0.70;;;;;;;;;;495432;28;1458;-77
2024/01/03 01:29:49;;;;;;;2.72;0.60;;;;;;;;;;496808;28;1287;-77
2024/01/03 01:30:05;;;;;;;2.53;0.60;;;;;;;;;;496547;28;1269;-78
2024/01/03 01:30:21;;;;;;;3.13;0.85;;;;;;;;;;495059;28;1463;-78
2024/01/03 01:30:36;;;;;;;3.78;0.80;;;;;;;;;;497403;28;957;-78
2024/01/03 01:30:52;;;;;;;4.28;0.70;;;;;;;;;;495365;28;1262;-78
2024/01/03 01:31:08;;;;;;;3.25;0.73;;;;;;;;;;493462;28;1350;-77
2024/01/03 01:31:23;;;;;;;3.20;0.80;;;;;;;;;;497092;28;1344;-78
2024/01/03 01:31:40;;;;;;;4.80;0.90;;;;;;;;;;498472;28;1167;-78
2024/01/03 01:31:56;;;;;;;4.20;0.80;;;;;;;;;;497822;28;1271;-79
2024/01/03 01:32:11;;;;;;;3.00;0.60;;;;;;;;;;495831;28;940;-78
2024/01/03 01:32:27;;;;;;;2.42;0.52;;;;;;;;;;496247;28;987;-78
2024/01/03 01:32:43;;;;;;;2.90;0.87;;;;;;;;;;495859;28;1326;-77
2024/01/03 01:32:58;;;;;;;4.10;1.00;;;;;;;;;;496117;28;1169;-79
2024/01/03 01:33:14;;;;;;;3.80;0.73;;;;;;;;;;494132;28;1184;-77
2024/01/03 01:33:29;;;;;;;3.50;0.70;;;;;;;;;;496432;28;1295;-78
2024/01/03 01:33:45;;;;;;;3.20;0.75;;;;;;;;;;497320;28;1062;-79
2024/01/03 01:34:01;;;;;;;3.60;0.90;;;;;;;;;;498658;28;1004;-79
2024/01/03 01:34:16;;;;;;;3.83;1.00;;;;;;;;;;494172;28;1340;-79
2024/01/03 01:34:32;;;;;;;3.90;0.80;;;;;;;;;;496757;28;1235;-78
2024/01/03 01:34:48;;;;;;;4.40;0.70;;;;;;;;;;497898;28;1016;-79
2024/01/03 01:35:03;;;;;;;4.27;0.70;;;;;;;;;;497939;28;1056;-79
2024/01/03 01:35:19;;;;;;;5.00;0.80;;;;;;;;;;496851;28;1691;-78
2024/01/03 01:35:34;;;;;;;4.10;0.80;;;;;;;;;;497529;28;1208;-78
2024/01/03 01:35:50;;;;;;;4.40;0.77;;;;;;;;;;497112;28;959;-79
2024/01/03 01:36:06;;;;;;;4.22;0.70;;;;;;;;;;497032;28;996;-78
2024/01/03 01:36:21;;;;;;;3.00;0.70;;;;;;;;;;495819;28;933;-79
2024/01/03 01:36:37;;;;;;;2.83;0.70;;;;;;;;;;498563;28;1047;-77
2024/01/03 01:36:53;;;;;;;3.45;0.70;;;;;;;;;;500136;28;1229;-78
2024/01/03 01:37:08;;;;;;;3.87;0.73;;;;;;;;;;498239;28;1211;-77
2024/01/03 01:37:24;;;;;;;3.38;0.80;;;;;;;;;;501751;28;1097;-79
2024/01/03 01:37:42;;;;;;;3.78;0.80;;;;;;;;;;504756;28;1140;-78
2024/01/03 01:37:57;;;;;;;2.97;0.70;;;;;;;;;;504049;28;952;-78
2024/01/03 01:38:13;;;;;;;3.33;0.80;;;;;;;;;;497006;28;1097;-77
2024/01/03 01:38:29;;;;;;;3.78;0.80;;;;;;;;;;500077;28;1066;-78
2024/01/03 01:38:44;;;;;;;3.33;0.60;;;;;;;;;;499043;28;897;-79
2024/01/03 01:39:01;;;;;;;3.67;0.70;;;;;;;;;;500291;28;1409;-80
2024/01/03 01:39:17;;;;;;;3.28;0.82;;;;;;;;;;487305;28;1504;-80
2024/01/03 01:39:33;;;;;;;4.38;0.90;;;;;;;;;;493180;28;1291;-80
2024/01/03 01:39:49;;;;;;;4.27;0.80;;;;;;;;;;494383;28;1306;-79
2024/01/03 01:40:05;;;;;;;3.85;0.80;;;;;;;;;;491903;28;1106;-80
2024/01/03 01:40:21;;;;;;;4.55;0.80;;;;;;;;;;485202;28;1282;-79
2024/01/03 01:40:37;;;;;;;4.07;0.80;;;;;;;;;;490125;28;1783;-78
2024/01/03 01:40:56;;;;;;;4.32;0.90;;;;;;;;;;490570;28;1131;-79
2024/01/03 01:41:12;;;;;;;5.93;0.93;;;;;;;;;;485312;28;1542;-79
2024/01/03 01:41:31;;;;;;;4.28;0.80;;;;;;;;;;490118;28;1333;-79
2024/01/03 01:41:47;;;;;;;2.80;0.75;;;;;;;;;;492402;28;1002;-79
2024/01/03 01:42:03;;;;;;;2.70;0.70;;;;;;;;;;493304;28;1514;-78
2024/01/03 01:42:19;;;;;;;3.80;0.90;;;;;;;;;;489044;28;1243;-79
2024/01/03 01:42:34;;;;;;;3.88;0.90;;;;;;;;;;495631;28;1354;-79
2024/01/03 01:42:51;;;;;;;3.73;0.70;;;;;;;;;;495405;28;1004;-80
2024/01/03 01:43:06;;;;;;;3.55;0.73;;;;;;;;;;493468;28;1003;-78
2024/01/03 01:43:22;;;;;;;3.33;0.80;;;;;;;;;;492397;28;1314;-79
2024/01/03 01:43:38;;;;;;;3.65;0.80;;;;;;;;;;496591;28;1231;-80
2024/01/03 01:43:54;;;;;;;2.80;0.70;;;;;;;;;;496061;28;1348;-79
2024/01/03 01:44:10;;;;;;;3.03;0.70;;;;;;;;;;488512;28;1387;-78
2024/01/03 01:44:26;;;;;;;2.88;0.68;;;;;;;;;;492829;28;1029;-80
2024/01/03 01:45:01;;;;;;;2.53;0.68;;;;;;;;;;493336;28;1306;-79
2024/01/03 01:45:17;;;;;;;2.83;0.70;;;;;;;;;;486051;28;1207;-78
2024/01/03 01:45:33;;;;;;;2.35;0.70;;;;;;;;;;493798;28;1021;-78
2024/01/03 01:45:49;;;;;;;3.35;0.82;;;;;;;;;;494305;28;1021;-81